Time;durP1;ratioP1;P1;durP2;ratioP2;P2;SDS_P1;SDS_P2;PMS_P1;PMS_P2;Temp;Humidity;BMP_temperature;BMP_pressure;BME280_temperature;BME280_humidity;BME280_pressure;Samples;Min_cycle;Max_cycle;Signal;HPM_P1;HPM_P2
2022/09/05 00:02:05;;;;;;;3.53;3.20;;;16.80;99.00;;;;;;5033322;28;20409;-74
2022/09/05 00:04:53;;;;;;;5.73;2.77;;;16.80;99.10;;;;;;5031115;28;20408;-73
2022/09/05 00:07:38;;;;;;;3.07;2.70;;;16.80;99.10;;;;;;5011851;28;20399;-73
2022/09/05 00:10:27;;;;;;;3.50;3.20;;;16.80;99.20;;;;;;5011685;28;20425;-73
2022/09/05 00:12:56;;;;;;;3.27;2.97;;;16.70;99.20;;;;;;5011670;28;20406;-73
2022/09/05 00:15:53;;;;;;;4.07;3.70;;;16.70;99.30;;;;;;5025155;28;20412;-73
2022/09/05 00:18:33;;;;;;;3.70;3.40;;;16.70;99.30;;;;;;5035113;28;20410;-73
2022/09/05 00:21:20;;;;;;;3.63;3.33;;;16.70;99.40;;;;;;5035367;28;20413;-73
2022/09/05 00:23:53;;;;;;;8.40;3.13;;;16.70;99.50;;;;;;5034773;28;20390;-74
2022/09/05 00:26:31;;;;;;;4.60;3.47;;;16.70;99.40;;;;;;5034584;28;20768;-74
2022/09/05 00:29:30;;;;;;;3.37;2.87;;;16.70;99.50;;;;;;5034905;28;20410;-74
2022/09/05 00:32:12;;;;;;;4.20;3.40;;;16.70;99.60;;;;;;5034905;28;20434;-72
2022/09/05 00:34:41;;;;;;;3.50;3.20;;;16.60;99.60;;;;;;5034359;28;20953;-73
2022/09/05 00:37:09;;;;;;;4.70;3.37;;;16.60;99.70;;;;;;5034415;28;20455;-73
2022/09/05 00:39:38;;;;;;;3.50;3.00;;;16.60;99.70;;;;;;5034136;28;20456;-73
2022/09/05 00:42:14;;;;;;;5.87;3.90;;;16.50;99.90;;;;;;5034486;28;20412;-73
2022/09/05 00:44:55;;;;;;;3.90;3.13;;;16.50;99.90;;;;;;5034288;28;20442;-73
2022/09/05 00:47:34;;;;;;;6.00;4.00;;;16.40;99.90;;;;;;5034550;28;20768;-73
2022/09/05 00:50:05;;;;;;;4.43;3.50;;;16.40;99.90;;;;;;5034250;28;20442;-73
2022/09/05 00:52:39;;;;;;;6.07;2.80;;;16.30;99.90;;;;;;5034350;28;20992;-73
2022/09/05 00:55:48;;;;;;;4.60;3.70;;;16.30;99.90;;;;;;5033905;28;20398;-73
2022/09/05 00:58:57;;;;;;;4.17;3.33;;;16.30;99.90;;;;;;4956861;28;20474;-73
2022/09/05 01:01:37;;;;;;;4.03;3.63;;;16.30;99.90;;;;;;4953847;29;20851;-73
2022/09/05 01:04:27;;;;;;;3.73;3.43;;;16.30;99.90;;;;;;4939223;29;20427;-73
2022/09/05 01:07:19;;;;;;;5.00;3.50;;;16.20;99.90;;;;;;5010133;28;20968;-73
2022/09/05 01:10:19;;;;;;;5.43;4.10;;;16.20;99.90;;;;;;4970240;28;20468;-73
2022/09/05 01:13:15;;;;;;;3.70;3.20;;;16.20;99.90;;;;;;5013903;28;20407;-73
2022/09/05 01:15:55;;;;;;;5.50;3.63;;;16.20;99.90;;;;;;4996106;28;20413;-73
2022/09/05 01:18:29;;;;;;;4.93;3.20;;;16.10;99.90;;;;;;5020353;28;20415;-72
2022/09/05 01:21:28;;;;;;;3.93;3.63;;;16.20;99.90;;;;;;5033557;28;20934;-73
2022/09/05 01:23:58;;;;;;;4.83;3.57;;;16.20;99.90;;;;;;5006972;28;20420;-72
2022/09/05 01:26:55;;;;;;;3.77;3.37;;;16.10;99.90;;;;;;5032464;28;20606;-73
2022/09/05 01:29:26;;;;;;;4.33;3.17;;;16.10;99.90;;;;;;5033162;28;20442;-73
2022/09/05 01:31:54;;;;;;;4.13;3.27;;;16.10;99.90;;;;;;5046708;22;20585;-66
2022/09/05 01:34:45;;;;;;;4.20;3.00;;;16.10;99.90;;;;;;5025094;28;20762;-67
2022/09/05 01:37:37;;;;;;;4.00;3.40;;;16.10;99.90;;;;;;5033188;28;20458;-67
2022/09/05 01:40:40;;;;;;;3.57;3.00;;;16.10;99.90;;;;;;5032957;28;20450;-66
2022/09/05 01:43:24;;;;;;;4.53;3.13;;;16.10;99.90;;;;;;5033242;28;20397;-66
2022/09/05 01:46:07;;;;;;;5.03;3.57;;;16.00;99.90;;;;;;5033118;28;20430;-66
2022/09/05 01:48:47;;;;;;;3.67;3.37;;;16.00;99.90;;;;;;5033105;28;20418;-67
2022/09/05 01:51:51;;;;;;;3.47;3.17;;;16.00;99.90;;;;;;5033072;28;20419;-67
2022/09/05 01:54:46;;;;;;;3.80;3.43;;;15.90;99.90;;;;;;4995468;28;20415;-65
2022/09/05 01:57:15;;;;;;;3.87;3.57;;;15.90;99.90;;;;;;5032646;28;20426;-67
2022/09/05 01:59:50;;;;;;;4.60;3.77;;;15.90;99.90;;;;;;5032605;28;20413;-67
2022/09/05 02:02:46;;;;;;;3.67;3.30;;;15.90;99.90;;;;;;5032945;28;20909;-66
2022/09/05 02:05:17;;;;;;;4.40;3.57;;;15.80;99.90;;;;;;5032633;28;20411;-66
2022/09/05 02:08:14;;;;;;;3.83;3.23;;;15.80;99.90;;;;;;5032689;28;20412;-67
2022/09/05 02:10:58;;;;;;;4.90;3.70;;;15.80;99.90;;;;;;5032579;28;20530;-66
2022/09/05 02:13:33;;;;;;;3.63;3.33;;;15.80;99.90;;;;;;5032743;28;20700;-66
2022/09/05 02:16:17;;;;;;;3.10;2.90;;;15.80;99.90;;;;;;5032396;28;20446;-67
2022/09/05 02:19:11;;;;;;;4.53;3.93;;;15.80;99.90;;;;;;5030794;28;20422;-66
2022/09/05 02:21:51;;;;;;;4.83;4.20;;;15.80;99.90;;;;;;5022757;28;20426;-67
2022/09/05 02:24:36;;;;;;;3.93;3.13;;;15.70;99.90;;;;;;5032379;28;20565;-67
2022/09/05 02:27:12;;;;;;;4.37;3.63;;;15.70;99.90;;;;;;5032124;28;20493;-67
2022/09/05 02:29:57;;;;;;;4.40;3.50;;;15.70;99.90;;;;;;5032350;28;20455;-67
2022/09/05 02:32:26;;;;;;;5.93;4.00;;;15.70;99.90;;;;;;5032132;28;20940;-67
2022/09/05 02:35:10;;;;;;;5.00;3.40;;;15.70;99.90;;;;;;5031939;28;20489;-67
2022/09/05 02:37:44;;;;;;;5.00;4.50;;;15.70;99.90;;;;;;5031872;28;20446;-67
2022/09/05 02:40:19;;;;;;;4.70;3.30;;;15.60;99.90;;;;;;5031882;28;20456;-65
2022/09/05 02:43:23;;;;;;;5.33;4.03;;;15.60;99.90;;;;;;5031928;28;20771;-67
2022/09/05 02:46:03;;;;;;;4.00;3.53;;;15.60;99.90;;;;;;5019553;28;20422;-67
2022/09/05 02:48:47;;;;;;;5.27;4.30;;;15.60;99.90;;;;;;5031957;28;20483;-67
2022/09/05 02:51:47;;;;;;;4.40;3.27;;;15.60;99.90;;;;;;5031518;28;20426;-68
2022/09/05 02:54:29;;;;;;;4.23;3.30;;;15.60;99.90;;;;;;5031950;28;20398;-66
2022/09/05 02:56:58;;;;;;;4.30;3.90;;;15.60;99.90;;;;;;5031732;28;20534;-67
2022/09/05 02:59:30;;;;;;;5.87;3.60;;;15.60;99.90;;;;;;5031732;28;20411;-66
2022/09/05 03:02:03;;;;;;;2.90;2.53;;;15.60;99.90;;;;;;5031683;28;21083;-66
2022/09/05 03:04:38;;;;;;;4.20;3.80;;;15.50;99.90;;;;;;5031935;28;20402;-67
2022/09/05 03:07:22;;;;;;;4.73;4.17;;;15.60;99.90;;;;;;5031832;28;20397;-68
2022/09/05 03:10:15;;;;;;;5.23;3.60;;;15.50;99.90;;;;;;5031943;28;20913;-67
2022/09/05 03:13:07;;;;;;;4.17;3.53;;;15.50;99.90;;;;;;5031802;28;20437;-66
2022/09/05 03:15:54;;;;;;;5.53;2.80;;;15.40;99.90;;;;;;5031656;28;20401;-66
2022/09/05 03:18:49;;;;;;;8.37;3.80;;;15.40;99.90;;;;;;5031974;28;20414;-67
2022/09/05 03:21:46;;;;;;;4.43;3.57;;;15.30;99.90;;;;;;5031677;28;20504;-66
2022/09/05 03:24:51;;;;;;;4.53;3.60;;;15.30;99.90;;;;;;5031621;28;20391;-67
2022/09/05 03:27:28;;;;;;;2.90;2.70;;;15.30;99.90;;;;;;5032031;28;20464;-68
2022/09/05 03:30:21;;;;;;;3.60;3.30;;;15.20;99.90;;;;;;5031657;28;20390;-67
2022/09/05 03:33:02;;;;;;;3.70;3.23;;;15.20;99.90;;;;;;5031676;28;20926;-67
2022/09/05 03:36:07;;;;;;;4.70;3.60;;;15.20;99.90;;;;;;5031906;28;20800;-67
2022/09/05 03:38:48;;;;;;;4.57;3.27;;;15.20;99.90;;;;;;5031450;28;20501;-66
2022/09/05 03:41:25;;;;;;;3.37;3.10;;;15.20;99.90;;;;;;5031429;28;20562;-66
2022/09/05 03:44:09;;;;;;;3.50;2.97;;;15.10;99.90;;;;;;5031480;28;20405;-67
2022/09/05 03:47:06;;;;;;;6.23;3.63;;;15.10;99.90;;;;;;5031571;28;20835;-66
2022/09/05 03:50:01;;;;;;;3.90;2.90;;;15.00;99.90;;;;;;5033236;28;20482;-68
2022/09/05 03:52:48;;;;;;;3.10;2.80;;;15.00;99.90;;;;;;5035503;28;20429;-66
2022/09/05 03:55:42;;;;;;;7.20;3.00;;;15.00;99.90;;;;;;5035208;28;20398;-66
2022/09/05 03:58:50;;;;;;;5.37;4.10;;;15.00;99.90;;;;;;5035227;28;20453;-66
2022/09/05 04:01:37;;;;;;;4.80;3.20;;;14.90;99.90;;;;;;5035121;28;20418;-67
2022/09/05 04:04:11;;;;;;;4.30;2.93;;;14.90;99.90;;;;;;5035042;28;20404;-67
2022/09/05 04:06:52;;;;;;;3.23;2.93;;;14.90;99.90;;;;;;5035076;28;20488;-66
2022/09/05 04:09:24;;;;;;;7.67;3.20;;;14.90;99.90;;;;;;5035166;28;20417;-67
2022/09/05 04:11:58;;;;;;;3.40;3.10;;;14.80;99.90;;;;;;5035145;28;20940;-66
2022/09/05 04:14:41;;;;;;;3.40;3.10;;;14.80;99.90;;;;;;5035039;28;20889;-67
2022/09/05 04:17:19;;;;;;;4.00;3.10;;;14.80;99.90;;;;;;5034882;28;20459;-67
2022/09/05 04:19:54;;;;;;;9.33;3.47;;;14.70;99.90;;;;;;5034989;28;20398;-67
2022/09/05 04:23:16;;;;;;;2.70;2.43;;;14.70;99.90;;;;;;5034821;28;20785;-67
2022/09/05 04:26:11;;;;;;;3.10;2.80;;;14.70;99.90;;;;;;5017000;28;20403;-67
2022/09/05 04:29:14;;;;;;;4.83;3.10;;;14.70;99.90;;;;;;5034594;28;20800;-67
2022/09/05 04:32:28;;;;;;;4.97;2.77;;;14.60;99.90;;;;;;4973268;28;20543;-68
2022/09/05 04:35:14;;;;;;;3.80;2.73;;;14.70;99.90;;;;;;4963441;28;20410;-67
2022/09/05 04:37:43;;;;;;;3.23;2.80;;;14.60;99.90;;;;;;5034630;28;20970;-68
2022/09/05 04:40:36;;;;;;;5.30;2.90;;;14.60;99.90;;;;;;5034600;28;20422;-68
2022/09/05 04:43:34;;;;;;;4.83;3.20;;;14.60;99.90;;;;;;5034575;28;20430;-66
2022/09/05 04:46:23;;;;;;;3.07;2.87;;;14.60;99.90;;;;;;5034400;28;20448;-68
2022/09/05 04:49:05;;;;;;;3.23;2.90;;;14.60;99.90;;;;;;5034440;28;20390;-66
2022/09/05 04:51:55;;;;;;;3.83;3.10;;;14.70;99.90;;;;;;5034504;28;20978;-66
2022/09/05 04:54:34;;;;;;;3.20;2.90;;;14.70;99.90;;;;;;5034318;28;20872;-66
2022/09/05 04:57:24;;;;;;;3.57;2.80;;;14.70;99.90;;;;;;5032539;28;20458;-68
2022/09/05 05:00:07;;;;;;;4.83;2.70;;;14.80;99.90;;;;;;5033865;28;20421;-68
2022/09/05 05:02:37;;;;;;;3.03;2.60;;;14.70;99.90;;;;;;5033915;28;20410;-66
2022/09/05 05:05:44;;;;;;;4.93;2.87;;;14.80;99.90;;;;;;5034075;28;20414;-65
2022/09/05 05:08:27;;;;;;;5.70;2.70;;;14.80;99.90;;;;;;5020161;28;20514;-66
2022/09/05 05:11:30;;;;;;;6.03;2.70;;;14.90;99.90;;;;;;5033927;28;20456;-67
2022/09/05 05:14:06;;;;;;;2.80;2.50;;;14.90;99.90;;;;;;5029511;28;20437;-67
2022/09/05 05:16:39;;;;;;;6.23;3.00;;;15.00;99.90;;;;;;5033646;28;20456;-68
2022/09/05 05:19:32;;;;;;;3.30;3.00;;;15.00;99.90;;;;;;5033699;28;20449;-66
2022/09/05 05:22:02;;;;;;;4.97;3.10;;;15.10;99.90;;;;;;5033898;28;20442;-66
2022/09/05 05:24:34;;;;;;;2.90;2.60;;;15.10;99.90;;;;;;5034910;28;20463;-69
2022/09/05 05:27:14;;;;;;;4.20;2.80;;;15.20;99.90;;;;;;5034314;28;20406;-66
2022/09/05 05:29:42;;;;;;;3.80;3.50;;;15.20;99.90;;;;;;5031864;28;20419;-66
2022/09/05 05:32:15;;;;;;;2.97;2.67;;;15.30;99.90;;;;;;5033306;28;20442;-67
2022/09/05 05:34:45;;;;;;;4.03;2.50;;;15.30;99.90;;;;;;5033601;28;20489;-67
2022/09/05 05:37:30;;;;;;;4.07;2.33;;;15.40;99.90;;;;;;5033344;28;20822;-66
2022/09/05 05:40:10;;;;;;;4.33;3.10;;;15.50;99.90;;;;;;5015906;28;20425;-66
2022/09/05 05:42:38;;;;;;;4.37;2.80;;;15.50;99.90;;;;;;5033315;28;20502;-66
2022/09/05 05:45:14;;;;;;;6.40;3.10;;;15.60;99.90;;;;;;5033126;28;20909;-66
2022/09/05 05:47:46;;;;;;;3.07;2.50;;;15.70;99.90;;;;;;5033157;28;20513;-67
2022/09/05 05:50:36;;;;;;;2.97;2.67;;;15.80;99.90;;;;;;5033286;28;20792;-67
2022/09/05 05:53:22;;;;;;;3.90;2.97;;;15.90;99.90;;;;;;5033410;28;20803;-67
2022/09/05 05:56:25;;;;;;;3.30;2.57;;;15.90;99.90;;;;;;5032979;28;20510;-66
2022/09/05 05:59:29;;;;;;;4.73;4.23;;;16.10;99.90;;;;;;5033063;28;20411;-66
2022/09/05 06:01:57;;;;;;;2.97;2.77;;;16.30;99.90;;;;;;5032888;28;20481;-66
2022/09/05 06:04:44;;;;;;;7.10;2.90;;;16.50;99.90;;;;;;5032998;28;20412;-67
2022/09/05 06:07:24;;;;;;;3.67;2.63;;;16.70;99.90;;;;;;5032888;28;20831;-66
2022/09/05 06:10:20;;;;;;;3.17;2.40;;;16.90;99.90;;;;;;5032801;28;20423;-66
2022/09/05 06:13:15;;;;;;;3.70;2.57;;;16.90;99.90;;;;;;5032063;28;20443;-66
2022/09/05 06:16:03;;;;;;;3.00;2.37;;;17.20;99.90;;;;;;5032601;28;20422;-66
2022/09/05 06:18:34;;;;;;;3.30;2.23;;;17.60;99.90;;;;;;5015112;28;20430;-67
2022/09/05 06:21:28;;;;;;;3.13;2.83;;;17.80;99.90;;;;;;5032539;28;20755;-67
2022/09/05 06:24:21;;;;;;;57.63;38.57;;;18.20;99.90;;;;;;5032243;28;20403;-70
2022/09/05 06:27:05;;;;;;;2.80;2.60;;;18.80;99.90;;;;;;5032202;28;20771;-66
2022/09/05 06:29:56;;;;;;;2.50;2.30;;;18.90;99.90;;;;;;5032187;28;20404;-66
2022/09/05 06:32:49;;;;;;;2.70;2.30;;;19.20;99.90;;;;;;5032540;28;20430;-66
2022/09/05 06:35:30;;;;;;;5.03;2.50;;;19.50;99.90;;;;;;5032144;28;20888;-66
2022/09/05 06:38:27;;;;;;;2.80;2.47;;;19.70;99.90;;;;;;5032299;28;20914;-66
2022/09/05 06:41:24;;;;;;;2.97;2.67;;;19.70;99.90;;;;;;5032394;28;20483;-66
2022/09/05 06:44:12;;;;;;;4.33;2.20;;;20.40;99.90;;;;;;5032074;28;20441;-67
2022/09/05 06:46:40;;;;;;;2.80;2.23;;;20.80;99.90;;;;;;5031918;28;20980;-68
2022/09/05 06:49:37;;;;;;;3.07;2.80;;;20.70;99.70;;;;;;5032120;28;20929;-67
2022/09/05 06:52:42;;;;;;;2.23;2.03;;;20.40;99.90;;;;;;5030037;28;20426;-66
2022/09/05 06:55:33;;;;;;;2.30;2.10;;;20.30;99.90;;;;;;5031806;28;20448;-67
2022/09/05 06:58:19;;;;;;;2.70;2.50;;;20.60;99.90;;;;;;5031530;28;21038;-67
2022/09/05 07:00:54;;;;;;;2.87;2.67;;;20.70;99.90;;;;;;5031328;28;20424;-66
2022/09/05 07:03:36;;;;;;;5.70;3.30;;;20.80;99.70;;;;;;5031880;28;20397;-66
2022/09/05 07:06:07;;;;;;;4.70;2.80;;;20.30;99.90;;;;;;5029666;28;20410;-67
2022/09/05 07:08:50;;;;;;;2.57;2.33;;;20.80;99.40;;;;;;5031798;28;20418;-65
2022/09/05 07:11:39;;;;;;;3.47;2.43;;;20.50;99.70;;;;;;5031811;28;20792;-67
2022/09/05 07:14:14;;;;;;;2.43;2.23;;;20.30;99.90;;;;;;5031791;28;20491;-66
2022/09/05 07:16:46;;;;;;;3.50;3.00;;;20.60;99.90;;;;;;5012146;28;20462;-66
2022/09/05 07:19:28;;;;;;;3.63;2.43;;;20.50;99.90;;;;;;5012777;28;20442;-65
2022/09/05 07:22:32;;;;;;;3.57;2.37;;;20.70;99.90;;;;;;5012496;28;20897;-67
2022/09/05 07:25:06;;;;;;;5.93;3.33;;;20.80;99.90;;;;;;5014657;28;20438;-66
2022/09/05 07:27:34;;;;;;;2.83;2.50;;;21.20;99.10;;;;;;5016124;28;20398;-66
2022/09/05 07:30:01;;;;;;;3.00;2.60;;;21.40;98.80;;;;;;5022141;28;20473;-67
2022/09/05 07:32:28;;;;;;;3.27;2.57;;;21.20;98.70;;;;;;5036279;28;20410;-70
2022/09/05 07:34:57;;;;;;;2.60;2.40;;;21.30;98.80;;;;;;5035404;28;20451;-68
2022/09/05 07:37:29;;;;;;;2.67;2.47;;;21.30;98.50;;;;;;5035595;28;20457;-68
2022/09/05 07:39:58;;;;;;;3.40;3.10;;;20.90;99.20;;;;;;5035744;28;20399;-67
2022/09/05 07:42:32;;;;;;;4.33;3.00;;;21.30;98.60;;;;;;5035368;28;20497;-67
2022/09/05 07:45:05;;;;;;;3.13;2.63;;;21.30;98.40;;;;;;5035421;28;20406;-67
2022/09/05 07:47:54;;;;;;;3.10;2.80;;;21.10;98.80;;;;;;5035338;28;20404;-67
2022/09/05 07:50:21;;;;;;;2.83;2.63;;;21.00;99.20;;;;;;5016986;28;20453;-66
2022/09/05 07:52:48;;;;;;;3.47;2.60;;;21.20;99.10;;;;;;5035257;28;20406;-67
2022/09/05 07:55:24;;;;;;;2.50;2.30;;;21.30;98.70;;;;;;5035082;28;20397;-66
2022/09/05 07:57:52;;;;;;;2.97;2.70;;;21.20;98.90;;;;;;5034925;28;20453;-66
2022/09/05 08:00:20;;;;;;;2.40;2.20;;;21.00;98.90;;;;;;5035168;28;20425;-66
2022/09/05 08:02:46;;;;;;;2.43;2.07;;;21.10;99.20;;;;;;5034975;28;20401;-66
2022/09/05 08:05:18;;;;;;;3.00;2.57;;;21.40;98.40;;;;;;5034838;28;20407;-67
2022/09/05 08:07:51;;;;;;;5.50;2.73;;;21.80;98.60;;;;;;5034863;28;20179;-66
2022/09/05 08:10:28;;;;;;;4.30;2.70;;;22.10;97.40;;;;;;5034712;28;20423;-66
2022/09/05 08:12:57;;;;;;;4.77;4.17;;;22.60;97.40;;;;;;5034898;28;20404;-67
2022/09/05 08:15:26;;;;;;;3.70;3.10;;;22.20;96.80;;;;;;5034613;28;20412;-67
2022/09/05 08:18:07;;;;;;;3.17;2.60;;;22.10;96.90;;;;;;5034647;28;20545;-67
2022/09/05 08:20:44;;;;;;;2.93;2.70;;;21.60;97.30;;;;;;5034834;28;20471;-67
2022/09/05 08:23:36;;;;;;;3.03;2.73;;;21.40;98.20;;;;;;5034889;28;20464;-67
2022/09/05 08:26:14;;;;;;;3.90;2.60;;;21.90;97.30;;;;;;5034619;28;20808;-67
2022/09/05 08:28:52;;;;;;;3.83;3.03;;;21.70;97.40;;;;;;5034537;28;20860;-66
2022/09/05 08:31:35;;;;;;;4.00;2.57;;;21.60;97.40;;;;;;5034286;28;20903;-66
2022/09/05 08:34:02;;;;;;;2.70;2.50;;;22.20;97.20;;;;;;5034616;28;20795;-67
2022/09/05 08:36:30;;;;;;;2.97;2.50;;;21.90;97.20;;;;;;5033791;28;20516;-67
2022/09/05 08:39:01;;;;;;;2.37;2.07;;;21.30;98.00;;;;;;5036971;28;20784;-67
2022/09/05 08:41:55;;;;;;;3.00;2.73;;;20.90;98.50;;;;;;5037671;28;20438;-67
2022/09/05 08:44:34;;;;;;;3.50;3.20;;;21.00;98.70;;;;;;5029075;28;20392;-67
2022/09/05 08:47:24;;;;;;;3.83;3.17;;;21.00;98.90;;;;;;5036250;28;20466;-67
2022/09/05 08:50:23;;;;;;;3.30;3.00;;;21.30;98.60;;;;;;5034118;28;20411;-67
2022/09/05 08:53:13;;;;;;;3.07;2.77;;;22.10;98.10;;;;;;5034355;28;20409;-68
2022/09/05 08:55:42;;;;;;;3.20;2.90;;;22.30;97.20;;;;;;5033750;28;20408;-67
2022/09/05 08:58:25;;;;;;;2.83;2.33;;;22.10;97.30;;;;;;5033961;28;21072;-67
2022/09/05 09:00:57;;;;;;;3.30;3.00;;;22.00;97.60;;;;;;5034281;28;20937;-67
2022/09/05 09:03:47;;;;;;;4.50;3.40;;;22.20;97.50;;;;;;5034260;28;20415;-67
2022/09/05 09:06:33;;;;;;;3.43;2.60;;;22.50;97.20;;;;;;5033231;28;20447;-67
2022/09/05 09:09:26;;;;;;;3.20;2.93;;;22.30;97.30;;;;;;5033935;28;20408;-66
2022/09/05 09:12:08;;;;;;;2.40;2.20;;;22.10;97.60;;;;;;5033881;28;20926;-70
2022/09/05 09:14:36;;;;;;;3.80;2.93;;;22.70;97.00;;;;;;5033677;28;20503;-67
2022/09/05 09:17:20;;;;;;;3.10;2.80;;;22.90;96.50;;;;;;5034208;28;20459;-68
2022/09/05 09:19:55;;;;;;;3.03;2.37;;;22.90;96.10;;;;;;5036018;28;20421;-68
2022/09/05 09:22:36;;;;;;;4.53;3.17;;;22.70;96.70;;;;;;5035106;28;20420;-67
2022/09/05 09:25:35;;;;;;;5.70;2.80;;;22.90;96.20;;;;;;5033276;28;20394;-67
2022/09/05 09:28:18;;;;;;;4.33;3.07;;;23.20;95.90;;;;;;5019601;28;20419;-67
2022/09/05 09:30:54;;;;;;;4.00;3.70;;;23.40;96.10;;;;;;5033091;28;20457;-67
2022/09/05 09:33:28;;;;;;;2.87;2.57;;;22.90;96.60;;;;;;5015428;28;20432;-67
2022/09/05 09:36:04;;;;;;;4.37;2.37;;;22.70;96.60;;;;;;5033096;28;20415;-67
2022/09/05 09:38:54;;;;;;;3.60;3.20;;;23.10;96.50;;;;;;5033176;28;20426;-67
2022/09/05 09:41:45;;;;;;;3.20;2.63;;;23.60;95.70;;;;;;5032557;28;20530;-67
2022/09/05 09:44:48;;;;;;;4.57;2.60;;;23.40;95.80;;;;;;5031603;28;20452;-67
2022/09/05 09:47:45;;;;;;;3.20;2.53;;;23.60;95.70;;;;;;5032032;28;20989;-67
2022/09/05 09:50:41;;;;;;;3.03;2.60;;;23.70;95.20;;;;;;5028780;28;20452;-67
2022/09/05 09:53:13;;;;;;;3.10;2.20;;;23.10;95.70;;;;;;5032880;28;20417;-67
2022/09/05 09:55:45;;;;;;;4.53;3.17;;;22.90;96.30;;;;;;5032742;28;20832;-67
2022/09/05 09:58:40;;;;;;;2.70;2.50;;;22.70;96.50;;;;;;5033099;28;20960;-67
2022/09/05 10:01:31;;;;;;;3.70;3.37;;;22.50;96.60;;;;;;5032911;28;21016;-67
2022/09/05 10:04:06;;;;;;;3.37;2.97;;;22.30;97.00;;;;;;5032809;28;20406;-67
2022/09/05 10:06:58;;;;;;;4.50;3.30;;;22.20;97.20;;;;;;5032426;28;20408;-67
2022/09/05 10:09:41;;;;;;;4.13;3.00;;;22.20;97.40;;;;;;5032814;28;20465;-67
2022/09/05 10:12:46;;;;;;;3.40;3.10;;;22.00;97.60;;;;;;5032756;28;20472;-67
2022/09/05 10:15:25;;;;;;;6.43;2.97;;;21.80;97.90;;;;;;5032492;28;20386;-67
2022/09/05 10:18:22;;;;;;;3.27;2.97;;;22.00;97.80;;;;;;5032419;28;20966;-66
2022/09/05 10:21:15;;;;;;;2.90;2.60;;;22.10;98.00;;;;;;5032349;28;20415;-66
2022/09/05 10:24:14;;;;;;;2.83;2.63;;;22.10;97.80;;;;;;5032497;28;20425;-67
2022/09/05 10:26:53;;;;;;;4.60;2.97;;;22.20;97.80;;;;;;5032258;28;20424;-67
2022/09/05 10:29:41;;;;;;;2.70;2.47;;;22.30;97.60;;;;;;5032425;28;20394;-67
2022/09/05 10:32:14;;;;;;;4.30;2.73;;;22.30;97.50;;;;;;5032255;28;20964;-68
2022/09/05 10:34:56;;;;;;;3.30;3.00;;;22.20;97.60;;;;;;5032232;28;20473;-67
2022/09/05 10:37:25;;;;;;;3.33;3.07;;;22.30;97.50;;;;;;5032231;28;20455;-67
2022/09/05 10:39:51;;;;;;;3.30;3.00;;;22.40;97.30;;;;;;5032389;28;20781;-67
2022/09/05 10:42:53;;;;;;;3.80;3.50;;;22.50;97.50;;;;;;5031859;28;20416;-67
2022/09/05 10:45:43;;;;;;;3.17;2.87;;;22.50;97.20;;;;;;5014555;28;20195;-68
2022/09/05 10:48:27;;;;;;;3.90;2.70;;;22.80;97.50;;;;;;5031975;28;20470;-66
2022/09/05 10:51:09;;;;;;;3.10;2.80;;;22.80;96.70;;;;;;5032024;28;20421;-66
2022/09/05 10:53:35;;;;;;;4.70;2.77;;;22.70;96.70;;;;;;5032019;28;20401;-66
2022/09/05 10:56:09;;;;;;;3.60;2.87;;;22.60;96.70;;;;;;5031697;28;20475;-67
2022/09/05 10:58:47;;;;;;;2.87;2.67;;;22.60;97.00;;;;;;5031568;28;20251;-67
2022/09/05 11:01:30;;;;;;;3.10;2.90;;;23.00;96.80;;;;;;5031743;28;20840;-67
2022/09/05 11:04:12;;;;;;;3.17;2.40;;;22.80;96.20;;;;;;5031724;28;20420;-67
2022/09/05 11:06:43;;;;;;;3.20;2.67;;;22.80;96.40;;;;;;5031573;28;20403;-67
2022/09/05 11:09:31;;;;;;;2.73;2.53;;;23.00;96.50;;;;;;5031514;28;20437;-66
2022/09/05 11:12:21;;;;;;;3.70;2.70;;;22.90;96.10;;;;;;5031610;28;20432;-67
2022/09/05 11:14:56;;;;;;;3.63;3.30;;;23.10;95.90;;;;;;5031589;28;20835;-67
2022/09/05 11:17:38;;;;;;;2.83;2.63;;;23.30;95.80;;;;;;5031270;28;20789;-68
2022/09/05 11:20:19;;;;;;;3.07;2.60;;;23.30;95.80;;;;;;5031663;28;20436;-67
2022/09/05 11:22:48;;;;;;;2.80;2.50;;;23.20;95.70;;;;;;5012156;28;20494;-67
2022/09/05 11:25:23;;;;;;;3.10;2.80;;;23.20;95.70;;;;;;5011705;28;20401;-67
2022/09/05 11:27:56;;;;;;;2.63;2.43;;;22.90;95.60;;;;;;5011661;28;20495;-67
2022/09/05 11:30:26;;;;;;;2.70;2.50;;;22.90;95.60;;;;;;5013192;28;20489;-67
2022/09/05 11:33:04;;;;;;;3.27;2.93;;;22.90;95.40;;;;;;5031436;28;20406;-67
2022/09/05 11:35:51;;;;;;;2.43;2.23;;;22.90;95.10;;;;;;5031320;28;20411;-67
2022/09/05 11:38:38;;;;;;;2.77;2.50;;;22.70;94.80;;;;;;5031138;28;20456;-67
2022/09/05 11:41:28;;;;;;;3.17;2.87;;;22.80;95.10;;;;;;5031320;28;20933;-67
2022/09/05 11:44:27;;;;;;;3.50;3.20;;;23.00;95.10;;;;;;5031406;28;20403;-67
2022/09/05 11:47:03;;;;;;;3.10;2.80;;;23.00;95.10;;;;;;5031065;28;20848;-67
2022/09/05 11:49:59;;;;;;;4.73;3.33;;;23.10;95.40;;;;;;5013625;28;20483;-67
2022/09/05 11:52:39;;;;;;;2.60;2.40;;;23.20;95.00;;;;;;5031512;28;20409;-67
2022/09/05 11:55:33;;;;;;;4.20;2.60;;;23.40;94.70;;;;;;5030986;28;20406;-67
2022/09/05 11:58:26;;;;;;;2.97;2.77;;;23.50;94.40;;;;;;5031051;28;20456;-67
2022/09/05 12:01:27;;;;;;;2.93;2.73;;;23.60;94.10;;;;;;5031147;28;20424;-67
2022/09/05 12:04:13;;;;;;;3.77;3.00;;;23.50;93.50;;;;;;5031103;28;20420;-67
2022/09/05 12:07:04;;;;;;;3.70;3.23;;;23.60;93.80;;;;;;5031128;28;20465;-67
2022/09/05 12:10:01;;;;;;;3.17;2.87;;;23.50;93.30;;;;;;5031219;28;20403;-67
2022/09/05 12:12:41;;;;;;;3.23;2.60;;;23.30;93.60;;;;;;5034934;28;20977;-67
2022/09/05 12:15:22;;;;;;;2.97;2.43;;;23.50;93.70;;;;;;5034681;28;20398;-67
2022/09/05 12:18:03;;;;;;;3.23;3.03;;;23.60;93.80;;;;;;5034392;28;20803;-67
2022/09/05 12:20:55;;;;;;;4.13;3.20;;;23.70;93.50;;;;;;5027829;28;20421;-67
2022/09/05 12:23:39;;;;;;;3.80;2.67;;;23.90;92.80;;;;;;5034630;28;20404;-66
2022/09/05 12:26:35;;;;;;;3.00;2.70;;;23.90;93.10;;;;;;5034947;28;20835;-68
2022/09/05 12:29:08;;;;;;;3.33;3.03;;;23.70;92.90;;;;;;5035752;28;20412;-66
2022/09/05 12:31:50;;;;;;;2.70;2.50;;;23.90;92.80;;;;;;5034499;28;20506;-66
2022/09/05 12:34:48;;;;;;;3.40;3.10;;;23.90;92.80;;;;;;5033005;28;20420;-67
2022/09/05 12:37:29;;;;;;;5.80;4.47;;;23.90;92.70;;;;;;5034027;28;20457;-67
2022/09/05 12:40:05;;;;;;;3.30;2.80;;;24.00;92.70;;;;;;5034226;28;20405;-67
2022/09/05 12:42:41;;;;;;;4.70;4.30;;;24.00;92.70;;;;;;5033058;28;20720;-67
2022/09/05 12:45:20;;;;;;;3.10;2.90;;;24.20;92.20;;;;;;5034009;28;20771;-67
2022/09/05 12:48:01;;;;;;;3.80;3.47;;;24.00;92.40;;;;;;5034294;28;20423;-67
2022/09/05 12:50:54;;;;;;;4.00;3.70;;;24.00;92.10;;;;;;5034025;28;20956;-66
2022/09/05 12:53:22;;;;;;;3.50;3.20;;;23.90;92.40;;;;;;5033849;28;20413;-66
2022/09/05 12:56:01;;;;;;;3.73;3.47;;;24.00;92.40;;;;;;5033911;28;20417;-66
2022/09/05 12:58:36;;;;;;;3.40;3.20;;;24.20;92.20;;;;;;5034003;28;20416;-66
2022/09/05 13:01:16;;;;;;;3.87;3.27;;;24.20;92.00;;;;;;5034038;28;20441;-67
2022/09/05 13:03:46;;;;;;;3.30;3.00;;;24.00;92.10;;;;;;5033505;28;20393;-66
2022/09/05 13:06:20;;;;;;;4.10;3.80;;;24.00;91.90;;;;;;5033879;28;20409;-70
2022/09/05 13:08:49;;;;;;;3.87;3.57;;;24.10;92.20;;;;;;5033794;28;20405;-69
2022/09/05 13:11:18;;;;;;;3.53;3.23;;;24.00;91.60;;;;;;5033995;28;20471;-67
2022/09/05 13:13:51;;;;;;;4.47;4.07;;;23.90;91.90;;;;;;5034118;28;20495;-66
2022/09/05 13:16:23;;;;;;;3.90;3.60;;;24.00;91.60;;;;;;5033864;28;20765;-67
2022/09/05 13:18:55;;;;;;;3.80;3.50;;;24.10;91.70;;;;;;5012713;28;20422;-67
2022/09/05 13:21:25;;;;;;;3.77;3.47;;;24.10;91.50;;;;;;5013921;28;20422;-67
2022/09/05 13:24:20;;;;;;;4.10;3.40;;;23.90;91.50;;;;;;5013916;28;20403;-67
2022/09/05 13:26:55;;;;;;;4.00;3.70;;;24.10;91.70;;;;;;5013618;28;20549;-67
2022/09/05 13:29:26;;;;;;;4.60;4.20;;;24.20;91.30;;;;;;5013968;28;20410;-67
2022/09/05 13:32:01;;;;;;;6.37;4.20;;;24.10;91.40;;;;;;5036151;23;20492;-73
2022/09/05 13:34:39;;;;;;;3.90;3.60;;;24.10;91.50;;;;;;5008829;28;20424;-73
2022/09/05 13:37:22;;;;;;;3.50;3.20;;;24.20;91.30;;;;;;5033419;28;20453;-72
2022/09/05 13:39:58;;;;;;;3.70;3.40;;;24.40;91.10;;;;;;5032962;28;20833;-72
2022/09/05 13:42:42;;;;;;;3.80;3.40;;;24.60;91.20;;;;;;5028346;28;20479;-73
2022/09/05 13:45:17;;;;;;;3.77;3.47;;;24.60;91.00;;;;;;5033389;28;20543;-73
2022/09/05 13:47:51;;;;;;;3.47;3.17;;;24.30;90.90;;;;;;5033699;28;20495;-73
2022/09/05 13:50:35;;;;;;;8.70;4.17;;;24.10;91.10;;;;;;5033516;28;20416;-71
2022/09/05 13:53:10;;;;;;;3.60;3.40;;;24.20;91.00;;;;;;5033142;28;20404;-73
2022/09/05 13:55:52;;;;;;;4.57;4.27;;;24.50;90.90;;;;;;5032928;28;20401;-73
2022/09/05 13:58:35;;;;;;;3.87;3.57;;;24.50;90.70;;;;;;5037509;28;20464;-73
2022/09/05 14:01:12;;;;;;;4.20;3.33;;;24.30;90.80;;;;;;5033195;28;20415;-73
2022/09/05 14:04:00;;;;;;;4.50;4.10;;;24.20;91.00;;;;;;5033085;28;20399;-73
2022/09/05 14:07:00;;;;;;;4.00;3.70;;;24.50;90.80;;;;;;5013288;28;20426;-72
2022/09/05 14:09:50;;;;;;;3.53;3.23;;;24.40;90.30;;;;;;5013679;28;20407;-73